Flight Information

DEPARTURE
EL MONTE, CA
Elevation:
295
Runways:
1/19 - 3995x75 - ASPH-G
ATIS:
118.75 626-444-1107
Ground:
125.9
Tower:
121.2
DESTINATION
,
Elevation:
TPA:
1000 (est.)


6774.3 NM73° True-14° Var59° HDG

Flight Plan:
(click to file on line)

1. Type
2. Aircraft Identification
3. Aircraft Type / Special Equipment
4. True Airspeed
kts
5. Departure Airport
(ICAO code)
6. Arriving Airport
(ICAO code)
7. Cruising Altitude
ft
8. Alternate Airport
(ICAO code)
9. Route of Flight
10. Remarks


00:00:00 Departure ATIS: Destination ATIS:

Clearance Limit:
Route:
Altitude: Expect in minutes
Frequency:
Transponder: (7500 Hijack / 7600 Lost Comms / 7700 Emergency)


KLGB 281153Z AUTO 00000KT 6SM HZ CLR 20/17 A2987 RMK AO2 SLP114 T02000172 10206 20200 55006
Time: 2020-09-28T11:53:00Z
1601297468
Winds: calm
Visibility: 6.0 sm
Clouds (AGL): CLR
Temperature: 20.0 C
Dew Point: 17.2 C
Pressure: 29.870079 in Hgbr


Notes:

Data extracted from FAA Digital Chart Supplement. Effective: 0901Z Thursday, Sep 10, 2020 to 0901Z Thursday, Nov 5, 2020
Current ATIS data is provided courtisy of PilotEdge.